createdAt,value
2023-01-19T00:01:36.323Z,100281.22
2023-01-19T00:04:04.846Z,100245.66
2023-01-19T00:06:33.960Z,100278.19
2023-01-19T00:09:02.475Z,100275.22
2023-01-19T00:11:30.960Z,100276.59
2023-01-19T00:13:59.375Z,100276.88
2023-01-19T00:16:29.205Z,100236.56
2023-01-19T00:18:57.504Z,100266.81
2023-01-19T00:21:25.818Z,100261.78
2023-01-19T00:23:54.296Z,100242.75
2023-01-19T00:26:23.324Z,100267.00
2023-01-19T00:28:52.990Z,100249.34
2023-01-19T00:31:21.828Z,100285.56
2023-01-19T00:33:52.919Z,100294.13
2023-01-19T00:36:21.649Z,100255.41
2023-01-19T00:38:49.983Z,100269.00
2023-01-19T00:41:18.824Z,100279.41
2023-01-19T00:43:46.365Z,100285.22
2023-01-19T00:46:14.748Z,100269.91
2023-01-19T00:48:43.236Z,100280.91
2023-01-19T00:51:13.338Z,100277.56
2023-01-19T00:53:41.643Z,100280.03
2023-01-19T00:56:10.097Z,100237.16
2023-01-19T00:58:38.421Z,100269.78
2023-01-19T01:01:07.026Z,100283.75
2023-01-19T01:03:35.690Z,100259.41
2023-01-19T01:06:04.372Z,100272.78
2023-01-19T01:08:34.325Z,100298.13
2023-01-19T01:11:03.413Z,100271.44
2023-01-19T01:13:32.227Z,100312.75
2023-01-19T01:16:01.071Z,100295.38
2023-01-19T01:18:29.412Z,100326.09
2023-01-19T01:21:02.819Z,100322.63
2023-01-19T01:23:31.422Z,100296.16
2023-01-19T01:26:02.202Z,100298.72
2023-01-19T01:28:30.746Z,100311.28
2023-01-19T01:30:59.532Z,100329.84
2023-01-19T01:33:40.847Z,100297.03
2023-01-19T01:36:11.444Z,100335.19
2023-01-19T01:38:40.293Z,100336.06
2023-01-19T01:41:10.699Z,100320.28
2023-01-19T01:43:49.279Z,100344.28
2023-01-19T01:46:20.086Z,100352.81
2023-01-19T01:48:56.037Z,100349.34
2023-01-19T01:51:30.412Z,100358.75
2023-01-19T01:54:13.336Z,100340.03
2023-01-19T01:56:46.618Z,100360.72
2023-01-19T01:59:25.783Z,100366.03
2023-01-19T02:02:13.943Z,100353.50
2023-01-19T02:04:48.763Z,100359.13
2023-01-19T02:07:42.786Z,100337.06
2023-01-19T02:10:29.296Z,100340.53
2023-01-19T02:13:16.893Z,100329.31
2023-01-19T02:15:45.765Z,100334.75
2023-01-19T02:18:14.479Z,100353.13
2023-01-19T02:20:52.299Z,100356.13
2023-01-19T02:23:34.582Z,100315.56
2023-01-19T02:26:04.159Z,100374.28
2023-01-19T02:28:33.163Z,100378.25
2023-01-19T02:31:01.584Z,100375.13
2023-01-19T02:33:30.334Z,100360.09
2023-01-19T02:35:59.040Z,100336.38
2023-01-19T02:38:31.600Z,100372.38
2023-01-19T02:41:02.734Z,100360.09
2023-01-19T02:43:32.379Z,100383.81
2023-01-19T02:46:01.077Z,100401.41
2023-01-19T02:48:29.712Z,100397.22
2023-01-19T02:51:04.451Z,100411.75
2023-01-19T02:54:05.112Z,100406.22
2023-01-19T02:57:12.778Z,100419.38
2023-01-19T02:59:58.547Z,100351.78
2023-01-19T03:02:37.188Z,100423.91
2023-01-19T03:05:27.403Z,100422.50
2023-01-19T03:08:08.925Z,100408.84
2023-01-19T03:10:49.225Z,100408.59
2023-01-19T03:13:28.805Z,100419.84
2023-01-19T03:16:01.913Z,100439.75
2023-01-19T03:18:35.255Z,100354.03
2023-01-19T03:21:08.547Z,100444.94
2023-01-19T03:23:39.795Z,100425.06
2023-01-19T03:26:14.207Z,100378.72
2023-01-19T03:28:45.348Z,100416.69
2023-01-19T03:31:21.095Z,100416.53
2023-01-19T03:33:55.472Z,100287.56
2023-01-19T03:36:33.400Z,100460.34
2023-01-19T03:39:04.535Z,100449.31
2023-01-19T03:41:37.631Z,100461.84
2023-01-19T03:44:08.778Z,100446.75
2023-01-19T03:46:37.461Z,100472.72
2023-01-19T03:49:06.150Z,100405.13
2023-01-19T03:51:39.232Z,100435.44
2023-01-19T03:54:10.749Z,100437.31
2023-01-19T03:56:40.988Z,100452.22
2023-01-19T03:59:09.441Z,100467.19
2023-01-19T04:01:37.948Z,100259.22
2023-01-19T04:04:06.870Z,100455.88
2023-01-19T04:06:35.927Z,100350.88
2023-01-19T04:09:04.513Z,100364.09
2023-01-19T04:11:36.037Z,100369.88
2023-01-19T04:14:06.351Z,100315.41
2023-01-19T04:16:34.875Z,100332.66
2023-01-19T04:19:03.552Z,100299.50
2023-01-19T04:21:32.136Z,100126.16
2023-01-19T04:24:01.409Z,100416.16
2023-01-19T04:26:29.979Z,100435.47
2023-01-19T04:28:59.887Z,100443.31
2023-01-19T04:31:29.938Z,100434.44
2023-01-19T04:33:58.633Z,100338.72
2023-01-19T04:36:27.692Z,100241.00
2023-01-19T04:38:56.359Z,100068.63
2023-01-19T04:41:24.977Z,100443.28
2023-01-19T04:43:53.621Z,100209.16
2023-01-19T04:46:22.350Z,100253.38
2023-01-19T04:48:52.645Z,100380.72
2023-01-19T04:51:21.374Z,100454.56
2023-01-19T04:53:50.009Z,100329.22
2023-01-19T04:56:19.876Z,100325.78
2023-01-19T04:58:48.452Z,100455.56
2023-01-19T05:01:17.052Z,100212.75
2023-01-19T05:03:46.009Z,100372.28
2023-01-19T05:06:15.886Z,100237.00
2023-01-19T05:08:45.447Z,100294.59
2023-01-19T05:11:14.116Z,100459.13
2023-01-19T05:13:42.621Z,100460.22
2023-01-19T05:16:11.735Z,100464.69
2023-01-19T05:18:40.185Z,100241.84
2023-01-19T05:21:09.034Z,100385.94
2023-01-19T05:23:39.201Z,100463.09
2023-01-19T05:26:09.534Z,100468.31
2023-01-19T05:28:39.139Z,100292.41
2023-01-19T05:31:10.012Z,100288.44
2023-01-19T05:33:38.790Z,100294.25
2023-01-19T05:36:09.538Z,100487.72
2023-01-19T05:38:39.469Z,100485.44
2023-01-19T05:41:08.535Z,100339.34
2023-01-19T05:43:37.226Z,100429.69
2023-01-19T05:46:06.228Z,100443.66
2023-01-19T05:48:34.907Z,100487.91
2023-01-19T05:51:04.987Z,100511.06
2023-01-19T05:53:33.550Z,100322.19
2023-01-19T05:56:05.653Z,100479.16
2023-01-19T05:58:35.704Z,100427.78
2023-01-19T06:01:06.991Z,100493.00
2023-01-19T06:03:43.279Z,100503.38
2023-01-19T06:06:12.523Z,100499.78
2023-01-19T06:08:41.210Z,100519.59
2023-01-19T06:11:11.345Z,100513.19
2023-01-19T06:13:42.101Z,100436.16
2023-01-19T06:16:12.979Z,100330.41
2023-01-19T06:18:41.735Z,100351.59
2023-01-19T06:21:13.817Z,100513.28
2023-01-19T06:23:42.301Z,100462.03
2023-01-19T06:26:12.456Z,100512.63
2023-01-19T06:28:40.856Z,100519.91
2023-01-19T06:31:09.843Z,100370.47
2023-01-19T06:33:38.355Z,100521.72
2023-01-19T06:36:08.854Z,100533.00
2023-01-19T06:38:37.299Z,100526.81
2023-01-19T06:41:06.162Z,100532.75
2023-01-19T06:43:36.068Z,100518.09
2023-01-19T06:46:06.054Z,100505.91
2023-01-19T06:48:34.956Z,100459.34
2023-01-19T06:51:03.776Z,100537.38
2023-01-19T06:53:32.281Z,100544.84
2023-01-19T06:56:02.866Z,100481.09
2023-01-19T06:58:34.928Z,100463.72
2023-01-19T07:01:06.002Z,100545.34
2023-01-19T07:03:35.624Z,100545.03
2023-01-19T07:06:06.720Z,100497.47
2023-01-19T07:08:36.100Z,100560.34
2023-01-19T07:11:25.674Z,100567.84
2023-01-19T07:13:56.936Z,100554.81
2023-01-19T07:16:27.243Z,100551.72
2023-01-19T07:18:55.887Z,100574.69
2023-01-19T07:21:24.657Z,100570.75
2023-01-19T07:23:54.336Z,100555.44
2023-01-19T07:26:25.047Z,100584.50
2023-01-19T07:28:53.868Z,100597.84
2023-01-19T07:31:22.578Z,100557.19
2023-01-19T07:33:52.841Z,100600.44
2023-01-19T07:36:21.467Z,100590.47
2023-01-19T07:38:50.235Z,100589.09
2023-01-19T07:41:18.750Z,100620.34
2023-01-19T07:43:47.412Z,100613.97
2023-01-19T07:46:15.909Z,100615.66
2023-01-19T07:48:44.584Z,100595.56
2023-01-19T07:51:19.058Z,100621.47
2023-01-19T07:53:48.252Z,100611.72
2023-01-19T07:56:17.136Z,100591.84
2023-01-19T07:58:45.631Z,100626.56
2023-01-19T08:01:15.172Z,100630.84
2023-01-19T08:03:43.966Z,100620.19
2023-01-19T08:06:21.866Z,100626.88
2023-01-19T08:08:50.687Z,100633.81
2023-01-19T08:11:19.075Z,100633.81
2023-01-19T08:13:47.492Z,100644.34
2023-01-19T08:16:16.256Z,100564.06
2023-01-19T08:18:44.925Z,100641.44
2023-01-19T08:21:14.771Z,100649.63
2023-01-19T08:23:43.296Z,100647.50
2023-01-19T08:26:23.956Z,100656.06
2023-01-19T08:28:52.386Z,100663.69
2023-01-19T08:31:24.536Z,100650.41
2023-01-19T08:33:53.878Z,100667.63
2023-01-19T08:36:25.221Z,100661.06
2023-01-19T08:38:53.820Z,100664.81
2023-01-19T08:41:22.514Z,100664.59
2023-01-19T08:43:51.247Z,100646.94
2023-01-19T08:46:21.905Z,100675.09
2023-01-19T08:48:50.526Z,100666.13
2023-01-19T08:51:20.091Z,100667.84
2023-01-19T08:53:50.306Z,100688.66
2023-01-19T08:56:20.650Z,100685.88
2023-01-19T08:58:59.533Z,100701.00
2023-01-19T09:01:37.460Z,100697.31
2023-01-19T09:04:06.831Z,100703.06
2023-01-19T09:06:35.307Z,100698.13
2023-01-19T09:09:05.566Z,100715.25
2023-01-19T09:11:35.303Z,100714.03
2023-01-19T09:14:05.677Z,100721.66
2023-01-19T09:16:34.586Z,100714.03
2023-01-19T09:19:03.008Z,100698.00
2023-01-19T09:21:31.549Z,100664.19
2023-01-19T09:24:00.011Z,100728.50
2023-01-19T09:26:31.641Z,100732.00
2023-01-19T09:29:01.407Z,100723.88
2023-01-19T09:31:30.158Z,100734.25
2023-01-19T09:33:58.677Z,100738.84
2023-01-19T09:36:27.137Z,100728.09
2023-01-19T09:38:55.446Z,100713.47
2023-01-19T09:41:26.110Z,100737.47
2023-01-19T09:43:58.851Z,100729.47
2023-01-19T09:46:35.807Z,100720.69
2023-01-19T09:49:12.236Z,100713.31
2023-01-19T09:51:44.955Z,100722.97
2023-01-19T09:54:16.905Z,100739.81
2023-01-19T09:56:49.904Z,100742.59
2023-01-19T09:59:25.467Z,100749.41
2023-01-19T10:02:19.972Z,100740.66
2023-01-19T10:04:59.852Z,100757.59
2023-01-19T10:07:53.298Z,100718.56
2023-01-19T10:10:25.541Z,100768.34
2023-01-19T10:13:22.640Z,100750.41
2023-01-19T10:16:05.102Z,100768.19
2023-01-19T10:18:47.990Z,100730.50
2023-01-19T10:21:21.628Z,100762.84
2023-01-19T10:23:54.783Z,100761.34
2023-01-19T10:26:26.844Z,100758.38
2023-01-19T10:29:02.959Z,100783.56
2023-01-19T10:31:35.191Z,100783.91
2023-01-19T10:34:04.707Z,100791.63
2023-01-19T10:36:38.161Z,100782.75
2023-01-19T10:39:07.452Z,100727.31
2023-01-19T10:41:43.615Z,100760.28
2023-01-19T10:44:12.606Z,100762.78
2023-01-19T10:46:46.058Z,100772.00
2023-01-19T10:49:27.422Z,100767.13
2023-01-19T10:51:57.492Z,100763.34
2023-01-19T10:54:28.141Z,100774.16
2023-01-19T10:57:00.668Z,100758.19
2023-01-19T10:59:36.598Z,100765.78
2023-01-19T11:02:21.769Z,100772.47
2023-01-19T11:04:53.932Z,100765.22
2023-01-19T11:07:24.969Z,100779.44
2023-01-19T11:10:21.967Z,100778.91
2023-01-19T11:13:03.229Z,100779.69
2023-01-19T11:15:36.063Z,100768.72
2023-01-19T11:18:07.771Z,100732.84
2023-01-19T11:20:49.376Z,100761.50
2023-01-19T11:23:27.276Z,100780.13
2023-01-19T11:26:00.582Z,100759.41
2023-01-19T11:28:33.894Z,100778.59
2023-01-19T11:31:05.097Z,100774.50
2023-01-19T11:33:42.867Z,100769.25
2023-01-19T11:36:18.635Z,100764.94
2023-01-19T11:38:50.665Z,100765.31
2023-01-19T11:41:22.553Z,100762.00
2023-01-19T11:43:55.557Z,100754.50
2023-01-19T11:46:28.099Z,100736.09
2023-01-19T11:49:03.016Z,100751.38
2023-01-19T11:51:38.864Z,100718.34
2023-01-19T11:54:18.959Z,100752.06
2023-01-19T11:56:49.606Z,100742.38
2023-01-19T11:59:18.034Z,100742.53
2023-01-19T12:01:51.874Z,100740.13
2023-01-19T12:04:29.487Z,100724.13
2023-01-19T12:07:00.302Z,100726.31
2023-01-19T12:09:32.148Z,100730.59
2023-01-19T12:12:06.198Z,100724.44
2023-01-19T12:14:42.019Z,100717.97
2023-01-19T12:17:21.992Z,100720.84
2023-01-19T12:19:57.489Z,100720.63
2023-01-19T12:22:29.000Z,100717.63
2023-01-19T12:25:04.046Z,100721.94
2023-01-19T12:27:42.254Z,100722.78
2023-01-19T12:30:21.041Z,100697.44
2023-01-19T12:32:51.255Z,100694.78
2023-01-19T12:35:58.385Z,100723.34
2023-01-19T12:38:48.793Z,100719.34
2023-01-19T12:41:29.177Z,100719.19
2023-01-19T12:44:27.747Z,100689.16
2023-01-19T12:47:04.242Z,100682.53
2023-01-19T12:49:43.797Z,100713.13
2023-01-19T12:52:33.417Z,100716.91
2023-01-19T12:55:16.671Z,100715.97
2023-01-19T12:57:57.931Z,100699.03
2023-01-19T13:00:39.707Z,100722.56
2023-01-19T13:03:47.139Z,100705.34
2023-01-19T13:06:15.516Z,100668.75
2023-01-19T13:09:02.503Z,100695.09
2023-01-19T13:11:34.490Z,100706.75
2023-01-19T13:14:36.587Z,100693.16
2023-01-19T13:17:18.379Z,100672.56
2023-01-19T13:19:54.959Z,100692.19
2023-01-19T13:23:20.398Z,100696.13
2023-01-19T13:26:05.217Z,100664.34
2023-01-19T13:28:42.063Z,100692.84
2023-01-19T13:31:12.139Z,100694.47
2023-01-19T13:33:49.738Z,100695.59
2023-01-19T13:36:27.340Z,100673.69
2023-01-19T13:38:56.663Z,100697.31
2023-01-19T13:41:30.980Z,100701.56
2023-01-19T13:44:04.392Z,100661.28
2023-01-19T13:46:34.317Z,100676.50
2023-01-19T13:49:06.793Z,100701.78
2023-01-19T13:51:35.167Z,100706.44
2023-01-19T13:54:03.794Z,100704.19
2023-01-19T13:56:33.584Z,100709.09
2023-01-19T13:59:12.552Z,100680.16
2023-01-19T14:01:43.953Z,100664.50
2023-01-19T14:04:31.043Z,100712.78
2023-01-19T14:07:03.664Z,100716.47
2023-01-19T14:09:32.554Z,100719.22
2023-01-19T14:12:14.532Z,100686.31
2023-01-19T14:14:43.502Z,100728.13
2023-01-19T14:17:33.184Z,100725.22
2023-01-19T14:20:02.051Z,100721.75
2023-01-19T14:22:42.377Z,100734.00
2023-01-19T14:25:34.173Z,100738.38
2023-01-19T14:28:30.689Z,100742.00
2023-01-19T14:31:01.887Z,100748.38
2023-01-19T14:33:41.507Z,100736.59
2023-01-19T14:36:18.424Z,100733.09
2023-01-19T14:38:48.254Z,100730.19
2023-01-19T14:41:28.211Z,100717.38
2023-01-19T14:44:01.323Z,100762.53
2023-01-19T14:46:30.276Z,100764.84
2023-01-19T14:49:05.794Z,100750.91
2023-01-19T14:51:34.454Z,100771.34
2023-01-19T14:54:05.147Z,100761.53
2023-01-19T14:56:35.991Z,100741.97
2023-01-19T14:59:11.839Z,100757.94
2023-01-19T15:01:40.506Z,100759.66
2023-01-19T15:04:09.016Z,100761.78
2023-01-19T15:06:45.871Z,100756.63
2023-01-19T15:09:15.242Z,100734.56
2023-01-19T15:11:45.132Z,100753.63
2023-01-19T15:14:16.722Z,100744.94
2023-01-19T15:16:46.190Z,100740.50
2023-01-19T15:19:16.021Z,100747.19
2023-01-19T15:21:46.395Z,100736.72
2023-01-19T15:24:17.841Z,100708.53
2023-01-19T15:26:46.988Z,100752.41
2023-01-19T15:29:25.930Z,100752.19
2023-01-19T15:31:54.888Z,100769.00
2023-01-19T15:34:23.339Z,100769.00
2023-01-19T15:36:52.319Z,100774.91
2023-01-19T15:39:20.712Z,100782.31
2023-01-19T15:41:49.172Z,100784.06
2023-01-19T15:44:17.611Z,100788.78
2023-01-19T15:46:47.473Z,100786.78
2023-01-19T15:49:15.954Z,100784.81
2023-01-19T15:51:44.410Z,100795.19
2023-01-19T15:54:15.599Z,100767.59
2023-01-19T15:56:43.964Z,100798.16
2023-01-19T15:59:12.689Z,100798.78
2023-01-19T16:01:41.891Z,100797.50
2023-01-19T16:04:12.652Z,100801.16
2023-01-19T16:06:41.272Z,100787.53
2023-01-19T16:09:09.818Z,100809.63
2023-01-19T16:11:38.837Z,100784.03
2023-01-19T16:14:09.319Z,100821.88
2023-01-19T16:16:38.446Z,100790.84
2023-01-19T16:19:07.190Z,100829.44
2023-01-19T16:21:36.993Z,100813.44
2023-01-19T16:24:05.950Z,100834.72
2023-01-19T16:26:36.727Z,100820.63
2023-01-19T16:29:09.831Z,100844.56
2023-01-19T16:31:39.101Z,100804.34
2023-01-19T16:34:07.623Z,100852.47
2023-01-19T16:36:40.667Z,100852.63
2023-01-19T16:39:12.886Z,100815.28
2023-01-19T16:41:41.545Z,100844.84
2023-01-19T16:44:11.596Z,100834.81
2023-01-19T16:46:42.599Z,100868.16
2023-01-19T16:49:15.643Z,100857.97
2023-01-19T16:51:46.457Z,100842.00
2023-01-19T16:54:16.118Z,100825.63
2023-01-19T16:56:44.658Z,100873.78
2023-01-19T16:59:15.014Z,100874.78
2023-01-19T17:01:45.508Z,100873.66
2023-01-19T17:04:15.541Z,100850.91
2023-01-19T17:06:46.515Z,100892.94
2023-01-19T17:09:15.459Z,100805.88
2023-01-19T17:11:44.564Z,100879.59
2023-01-19T17:14:16.332Z,100905.41
2023-01-19T17:16:45.036Z,100880.34
2023-01-19T17:19:17.760Z,100908.97
2023-01-19T17:21:49.066Z,100886.28
2023-01-19T17:24:18.587Z,100857.47
2023-01-19T17:26:48.664Z,100895.44
2023-01-19T17:29:17.948Z,100898.19
2023-01-19T17:31:46.916Z,100921.50
2023-01-19T17:34:15.345Z,100920.25
2023-01-19T17:36:43.781Z,100929.00
2023-01-19T17:39:15.085Z,100931.66
2023-01-19T17:41:43.655Z,100918.25
2023-01-19T17:44:12.098Z,100922.81
2023-01-19T17:46:40.872Z,100933.97
2023-01-19T17:49:09.670Z,100938.53
2023-01-19T17:51:38.566Z,100919.19
2023-01-19T17:54:07.408Z,100937.09
2023-01-19T17:56:38.799Z,100942.31
2023-01-19T17:59:08.168Z,100936.44
2023-01-19T18:01:40.358Z,100956.38
2023-01-19T18:04:10.422Z,100951.94
2023-01-19T18:06:40.239Z,100918.28
2023-01-19T18:09:08.938Z,100946.69
2023-01-19T18:11:38.881Z,100953.91
2023-01-19T18:14:07.315Z,100951.31
2023-01-19T18:16:36.562Z,100959.19
2023-01-19T18:19:05.143Z,100961.06
2023-01-19T18:21:33.513Z,100962.56
2023-01-19T18:24:04.267Z,100970.56
2023-01-19T18:26:34.526Z,100981.44
2023-01-19T18:29:04.581Z,100971.41
2023-01-19T18:31:33.255Z,100979.28
2023-01-19T18:34:01.807Z,100972.38
2023-01-19T18:36:32.044Z,100964.13
2023-01-19T18:39:01.772Z,100957.75
2023-01-19T18:41:30.669Z,100971.72
2023-01-19T18:43:59.910Z,100966.47
2023-01-19T18:46:29.736Z,100967.22
2023-01-19T18:48:58.331Z,100941.00
2023-01-19T18:51:26.805Z,100970.25
2023-01-19T18:53:55.488Z,100969.00
2023-01-19T18:56:24.220Z,100976.75
2023-01-19T18:58:53.370Z,100938.09
2023-01-19T19:01:25.741Z,100975.00
2023-01-19T19:03:56.966Z,100937.00
2023-01-19T19:06:27.546Z,100975.91
2023-01-19T19:08:59.452Z,100967.78
2023-01-19T19:11:28.562Z,100981.72
2023-01-19T19:14:00.761Z,100966.00
2023-01-19T19:16:29.959Z,100981.34
2023-01-19T19:19:00.904Z,100978.84
2023-01-19T19:21:29.374Z,100981.63
2023-01-19T19:23:59.383Z,100977.13
2023-01-19T19:26:29.039Z,100971.75
2023-01-19T19:28:57.718Z,100988.03
2023-01-19T19:31:27.729Z,100984.66
2023-01-19T19:33:57.866Z,100999.06
2023-01-19T19:36:29.687Z,100982.94
2023-01-19T19:39:00.641Z,101003.97
2023-01-19T19:41:32.193Z,100977.13
2023-01-19T19:44:01.331Z,101006.50
2023-01-19T19:46:29.837Z,100984.09
2023-01-19T19:48:58.568Z,101036.06
2023-01-19T19:51:29.810Z,101001.06
2023-01-19T19:54:01.322Z,101034.75
2023-01-19T19:56:31.713Z,101017.31
2023-01-19T19:59:01.401Z,101047.66
2023-01-19T20:01:33.403Z,101043.94
2023-01-19T20:04:08.424Z,101027.25
2023-01-19T20:06:41.197Z,101051.84
2023-01-19T20:09:12.772Z,101018.97
2023-01-19T20:11:42.083Z,101033.97
2023-01-19T20:14:13.323Z,101050.94
2023-01-19T20:16:43.036Z,101071.19
2023-01-19T20:19:11.983Z,101024.28
2023-01-19T20:21:42.866Z,101039.66
2023-01-19T20:24:15.579Z,101067.25
2023-01-19T20:26:47.545Z,101066.59
2023-01-19T20:29:16.100Z,101070.00
2023-01-19T20:31:48.747Z,101078.44
2023-01-19T20:34:20.530Z,101079.16
2023-01-19T20:36:53.154Z,101044.09
2023-01-19T20:39:23.749Z,101055.38
2023-01-19T20:41:52.720Z,101027.69
2023-01-19T20:44:24.229Z,101083.72
2023-01-19T20:46:53.747Z,101037.75
2023-01-19T20:49:22.512Z,101081.47
2023-01-19T20:51:53.395Z,101097.94
2023-01-19T20:54:26.329Z,101084.41
2023-01-19T20:56:55.714Z,101064.38
2023-01-19T20:59:24.710Z,101118.41
2023-01-19T21:01:53.639Z,101113.06
2023-01-19T21:04:22.422Z,101127.91
2023-01-19T21:06:52.323Z,101123.69
2023-01-19T21:09:22.944Z,101110.97
2023-01-19T21:11:51.276Z,101095.69
2023-01-19T21:14:19.681Z,101122.59
2023-01-19T21:16:48.451Z,101122.22
2023-01-19T21:19:17.225Z,101132.03
2023-01-19T21:21:45.762Z,101118.06
2023-01-19T21:24:15.620Z,101132.81
2023-01-19T21:26:44.953Z,101141.22
2023-01-19T21:29:14.094Z,101145.16
2023-01-19T21:31:42.672Z,101157.06
2023-01-19T21:34:11.336Z,101158.25
2023-01-19T21:36:39.777Z,101104.03
2023-01-19T21:39:09.088Z,101170.28
2023-01-19T21:41:40.310Z,101170.59
2023-01-19T21:44:09.239Z,101168.13
2023-01-19T21:46:37.641Z,101172.75
2023-01-19T21:49:08.539Z,101138.72
2023-01-19T21:51:37.905Z,101174.31
2023-01-19T21:54:08.009Z,101154.97
2023-01-19T21:56:39.019Z,101174.00
2023-01-19T21:59:07.749Z,101149.53
2023-01-19T22:01:36.726Z,101172.97
2023-01-19T22:04:05.551Z,101177.56
2023-01-19T22:06:34.304Z,101141.72
2023-01-19T22:09:03.149Z,101172.63
2023-01-19T22:11:31.995Z,101171.72
2023-01-19T22:14:01.974Z,101183.09
2023-01-19T22:16:31.269Z,101156.97
2023-01-19T22:19:02.598Z,101173.19
2023-01-19T22:21:34.010Z,101146.81
2023-01-19T22:24:05.402Z,101129.75
2023-01-19T22:26:37.109Z,101129.28
2023-01-19T22:29:11.021Z,101143.22
2023-01-19T22:31:40.322Z,101176.28
2023-01-19T22:34:10.478Z,101178.63
2023-01-19T22:36:39.747Z,101187.59
2023-01-19T22:39:11.022Z,101167.41
2023-01-19T22:41:42.289Z,101146.59
2023-01-19T22:44:14.570Z,101187.22
2023-01-19T22:46:43.662Z,101144.09
2023-01-19T22:49:14.871Z,101169.50
2023-01-19T22:51:43.631Z,101189.97
2023-01-19T22:54:12.841Z,101190.53
2023-01-19T22:56:42.905Z,101153.91
2023-01-19T22:59:12.868Z,101184.22
2023-01-19T23:01:44.448Z,101176.19
2023-01-19T23:04:15.598Z,101196.19
2023-01-19T23:06:47.016Z,101154.72
2023-01-19T23:09:16.692Z,101152.44
2023-01-19T23:11:50.318Z,101154.16
2023-01-19T23:14:23.029Z,101188.59
2023-01-19T23:16:51.554Z,101155.66
2023-01-19T23:19:20.120Z,101198.03
2023-01-19T23:21:52.323Z,101206.34
2023-01-19T23:24:20.759Z,101199.00
2023-01-19T23:26:50.497Z,101152.28
2023-01-19T23:29:20.697Z,101158.06
2023-01-19T23:31:50.689Z,101180.59
2023-01-19T23:34:19.097Z,101215.19
2023-01-19T23:36:47.501Z,101225.28
2023-01-19T23:39:18.779Z,101189.78
2023-01-19T23:41:47.437Z,101228.50
2023-01-19T23:44:17.143Z,101209.09
2023-01-19T23:46:47.598Z,101235.25
2023-01-19T23:49:17.077Z,101234.97
2023-01-19T23:51:45.565Z,101226.38
2023-01-19T23:54:14.162Z,101226.47
2023-01-19T23:56:43.268Z,101241.19
2023-01-19T23:59:13.959Z,101204.16
